createdAt,value
2019-04-11T00:00:31.474Z,5.40
2019-04-11T00:02:59.083Z,5.50
2019-04-11T00:05:26.735Z,5.40
2019-04-11T00:07:54.368Z,5.30
2019-04-11T00:10:22.848Z,5.77
2019-04-11T00:12:52.374Z,5.53
2019-04-11T00:15:20.319Z,5.53
2019-04-11T00:17:48.145Z,5.93
2019-04-11T00:20:16.037Z,5.07
2019-04-11T00:22:43.770Z,5.50
2019-04-11T00:25:11.541Z,5.30
2019-04-11T00:27:39.282Z,5.90
2019-04-11T00:30:08.066Z,5.30
2019-04-11T00:32:35.949Z,5.73
2019-04-11T00:35:03.834Z,5.67
2019-04-11T00:37:31.505Z,5.20
2019-04-11T00:39:59.681Z,5.47
2019-04-11T00:42:28.299Z,5.60
2019-04-11T00:44:57.043Z,5.30
2019-04-11T00:47:24.864Z,5.43
2019-04-11T00:49:52.655Z,5.33
2019-04-11T00:52:20.625Z,5.53
2019-04-11T00:54:49.099Z,5.70
2019-04-11T00:57:16.925Z,6.10
2019-04-11T00:59:44.765Z,5.27
2019-04-11T01:02:13.498Z,5.20
2019-04-11T01:04:41.409Z,5.43
2019-04-11T01:07:09.054Z,6.43
2019-04-11T01:09:36.776Z,5.80
2019-04-11T01:12:04.641Z,5.27
2019-04-11T01:14:32.375Z,6.00
2019-04-11T01:17:01.031Z,5.40
2019-04-11T01:19:28.989Z,5.90
2019-04-11T01:21:57.932Z,6.23
2019-04-11T01:24:28.148Z,6.00
2019-04-11T01:26:57.268Z,5.90
2019-04-11T01:29:27.218Z,5.53
2019-04-11T01:31:58.608Z,5.50
2019-04-11T01:34:26.685Z,5.40
2019-04-11T01:36:55.906Z,5.80
2019-04-11T01:39:49.656Z,5.63
2019-04-11T01:42:17.711Z,5.50
2019-04-11T01:44:46.042Z,5.60
2019-04-11T01:47:21.132Z,5.37
2019-04-11T01:49:48.787Z,5.47
2019-04-11T01:52:16.466Z,5.40
2019-04-11T01:54:44.102Z,5.47
2019-04-11T01:57:11.800Z,5.93
2019-04-11T01:59:41.673Z,6.07
2019-04-11T02:02:28.698Z,5.80
2019-04-11T02:05:12.495Z,5.77
2019-04-11T02:07:40.257Z,5.57
2019-04-11T02:10:08.524Z,5.47
2019-04-11T02:12:37.354Z,5.93
2019-04-11T02:15:06.096Z,5.57
2019-04-11T02:17:34.875Z,5.63
2019-04-11T02:20:04.866Z,5.77
2019-04-11T02:22:40.489Z,6.47
2019-04-11T02:25:24.831Z,6.23
2019-04-11T02:27:52.598Z,6.30
2019-04-11T02:30:22.665Z,5.40
2019-04-11T02:32:51.246Z,5.53
2019-04-11T02:35:20.402Z,6.37
2019-04-11T02:37:51.560Z,6.17
2019-04-11T02:40:20.047Z,6.10
2019-04-11T02:42:47.683Z,5.87
2019-04-11T02:45:27.865Z,6.10
2019-04-11T02:47:48.169Z,5.57
2019-04-11T02:50:18.650Z,6.67
2019-04-11T02:52:44.607Z,5.83
2019-04-11T02:55:13.127Z,6.77
2019-04-11T02:57:43.017Z,6.00
2019-04-11T03:00:12.882Z,5.50
2019-04-11T03:02:42.332Z,6.13
2019-04-11T03:05:12.054Z,6.03
2019-04-11T03:07:40.313Z,6.53
2019-04-11T03:10:11.338Z,5.53
2019-04-11T03:12:38.265Z,6.43
2019-04-11T03:15:24.333Z,6.70
2019-04-11T03:17:42.216Z,6.47
2019-04-11T03:20:18.770Z,6.87
2019-04-11T03:22:35.729Z,6.90
2019-04-11T03:25:05.422Z,5.97
2019-04-11T03:27:34.725Z,6.07
2019-04-11T03:30:03.416Z,6.40
2019-04-11T03:33:18.511Z,6.87
2019-04-11T03:37:53.923Z,5.83
2019-04-11T03:40:24.176Z,5.73
2019-04-11T03:42:46.519Z,6.33
2019-04-11T03:45:21.034Z,6.87
2019-04-11T03:47:39.952Z,7.33
2019-04-11T03:50:07.712Z,6.73
2019-04-11T03:52:30.663Z,6.40
2019-04-11T03:55:00.353Z,6.83
2019-04-11T03:57:29.775Z,7.33
2019-04-11T03:59:58.747Z,7.83
2019-04-11T04:02:28.277Z,6.50
2019-04-11T04:04:57.065Z,7.00
2019-04-11T04:07:25.139Z,7.03
2019-04-11T04:09:53.753Z,6.30
2019-04-11T04:12:23.542Z,7.70
2019-04-11T04:15:06.370Z,7.50
2019-04-11T04:17:59.785Z,7.37
2019-04-11T04:20:57.601Z,6.87
2019-04-11T04:23:29.451Z,6.27
2019-04-11T04:25:58.547Z,7.03
2019-04-11T04:28:27.235Z,7.70
2019-04-11T04:30:55.398Z,7.13
2019-04-11T04:33:26.650Z,7.53
2019-04-11T04:35:55.942Z,8.10
2019-04-11T04:38:24.080Z,7.73
2019-04-11T04:41:07.683Z,7.70
2019-04-11T04:43:24.957Z,7.60
2019-04-11T04:46:08.639Z,7.40
2019-04-11T04:48:26.368Z,7.10
2019-04-11T04:50:54.497Z,7.53
2019-04-11T04:53:23.670Z,7.03
2019-04-11T04:55:52.817Z,8.13
2019-04-11T04:58:22.296Z,8.23
2019-04-11T05:00:53.628Z,8.00
2019-04-11T05:03:22.009Z,7.63
2019-04-11T05:05:50.993Z,7.90
2019-04-11T05:08:20.639Z,8.37
2019-04-11T05:10:49.152Z,7.60
2019-04-11T05:13:17.303Z,7.93
2019-04-11T05:15:47.052Z,7.77
2019-04-11T05:18:17.331Z,7.97
2019-04-11T05:20:44.284Z,7.57
2019-04-11T05:23:12.003Z,7.40
2019-04-11T05:25:39.658Z,7.80
2019-04-11T05:28:07.286Z,7.77
2019-04-11T05:30:34.917Z,7.77
2019-04-11T05:33:03.683Z,7.23
2019-04-11T05:35:32.877Z,7.50
2019-04-11T05:38:01.982Z,7.40
2019-04-11T05:40:32.422Z,7.67
2019-04-11T05:43:00.180Z,8.00
2019-04-11T05:45:27.807Z,7.77
2019-04-11T05:47:57.061Z,7.87
2019-04-11T05:50:30.494Z,7.20
2019-04-11T05:53:02.374Z,7.57
2019-04-11T05:55:32.142Z,7.70
2019-04-11T05:58:00.842Z,8.50
2019-04-11T06:00:42.158Z,7.37
2019-04-11T06:03:10.440Z,7.60
2019-04-11T06:05:59.942Z,7.47
2019-04-11T06:08:29.193Z,7.00
2019-04-11T06:11:19.185Z,8.03
2019-04-11T06:13:53.325Z,8.33
2019-04-11T06:16:20.993Z,7.30
2019-04-11T06:19:08.038Z,7.53
2019-04-11T06:21:40.167Z,7.40
2019-04-11T06:24:30.228Z,7.80
2019-04-11T06:27:26.250Z,8.13
2019-04-11T06:30:19.993Z,7.47
2019-04-11T06:33:05.800Z,7.83
2019-04-11T06:35:44.825Z,8.63
2019-04-11T06:38:43.162Z,8.23
2019-04-11T06:41:18.694Z,8.10
2019-04-11T06:44:04.698Z,7.50
2019-04-11T06:46:52.334Z,8.03
2019-04-11T06:49:20.404Z,8.13
2019-04-11T06:51:52.574Z,8.50
2019-04-11T06:54:43.413Z,8.50
2019-04-11T06:57:16.036Z,8.77
2019-04-11T06:59:45.009Z,8.23
2019-04-11T07:02:17.954Z,8.37
2019-04-11T07:04:51.791Z,8.63
2019-04-11T07:07:20.582Z,8.73
2019-04-11T07:09:59.758Z,7.93
2019-04-11T07:12:31.095Z,8.50
2019-04-11T07:15:08.293Z,8.13
2019-04-11T07:17:54.684Z,8.27
2019-04-11T07:20:41.426Z,8.73
2019-04-11T07:23:28.520Z,8.43
2019-04-11T07:26:10.590Z,8.20
2019-04-11T07:29:04.577Z,7.87
2019-04-11T07:31:50.448Z,7.77
2019-04-11T07:34:39.615Z,8.97
2019-04-11T07:37:32.616Z,9.00
2019-04-11T07:40:20.068Z,9.03
2019-04-11T07:42:52.104Z,8.73
2019-04-11T07:45:27.639Z,9.10
2019-04-11T07:48:02.732Z,9.07
2019-04-11T07:50:31.813Z,9.00
2019-04-11T07:53:02.012Z,9.23
2019-04-11T07:55:30.536Z,9.37
2019-04-11T07:58:16.483Z,8.40
2019-04-11T08:01:06.417Z,9.50
2019-04-11T08:03:59.616Z,8.93
2019-04-11T08:06:52.553Z,8.93
2019-04-11T08:09:37.241Z,8.27
2019-04-11T08:12:10.822Z,8.87
2019-04-11T08:14:57.956Z,9.83
2019-04-11T08:17:36.711Z,9.97
2019-04-11T08:20:17.233Z,9.10
2019-04-11T08:22:47.582Z,9.20
2019-04-11T08:25:35.503Z,8.80
2019-04-11T08:28:07.635Z,8.97
2019-04-11T08:30:46.876Z,10.53
2019-04-11T08:33:16.178Z,9.80
2019-04-11T08:35:55.130Z,10.10
2019-04-11T08:38:26.590Z,10.17
2019-04-11T08:40:59.244Z,10.37
2019-04-11T08:43:29.352Z,9.87
2019-04-11T08:46:02.514Z,9.50
2019-04-11T08:48:32.924Z,9.27
2019-04-11T08:51:04.934Z,9.47
2019-04-11T08:54:10.757Z,10.53
2019-04-11T08:56:39.958Z,9.83
2019-04-11T08:59:37.791Z,9.63
2019-04-11T09:02:06.820Z,9.87
2019-04-11T09:05:04.938Z,9.83
2019-04-11T09:07:29.608Z,10.03
2019-04-11T09:10:28.269Z,9.03
2019-04-11T09:13:02.923Z,9.30
2019-04-11T09:15:49.010Z,9.53
2019-04-11T09:18:17.760Z,9.73
2019-04-11T09:21:20.349Z,9.57
2019-04-11T09:23:48.109Z,9.27
2019-04-11T09:26:36.055Z,9.07
2019-04-11T09:29:04.016Z,8.87
2019-04-11T09:32:22.923Z,10.07
2019-04-11T09:34:57.642Z,8.83
2019-04-11T09:37:29.532Z,8.57
2019-04-11T09:40:17.354Z,9.20
2019-04-11T09:43:04.554Z,9.10
2019-04-11T09:45:57.712Z,9.67
2019-04-11T09:48:42.238Z,9.23
2019-04-11T09:51:33.767Z,8.80
2019-04-11T09:54:24.120Z,8.90
2019-04-11T09:57:26.826Z,8.20
2019-04-11T10:00:14.380Z,7.80
2019-04-11T10:03:01.720Z,6.90
2019-04-11T10:05:34.211Z,6.67
2019-04-11T10:08:10.728Z,6.47
2019-04-11T10:10:57.822Z,6.60
2019-04-11T10:13:55.308Z,7.30
2019-04-11T10:16:46.539Z,7.77
2019-04-11T10:19:38.210Z,7.57
2019-04-11T10:22:25.448Z,7.50
2019-04-11T10:25:19.107Z,7.60
2019-04-11T10:28:19.644Z,7.97
2019-04-11T10:31:06.389Z,8.90
2019-04-11T10:34:09.192Z,8.60
2019-04-11T10:36:47.419Z,8.70
2019-04-11T10:39:35.612Z,8.57
2019-04-11T10:42:06.457Z,8.27
2019-04-11T10:44:54.058Z,8.73
2019-04-11T10:47:23.458Z,8.70
2019-04-11T10:50:19.938Z,9.97
2019-04-11T10:52:53.092Z,10.03
2019-04-11T10:55:25.309Z,10.47
2019-04-11T10:58:04.782Z,9.50
2019-04-11T11:00:47.703Z,9.17
2019-04-11T11:03:28.740Z,9.13
2019-04-11T11:05:58.189Z,10.00
2019-04-11T11:08:51.563Z,8.97
2019-04-11T11:11:24.077Z,8.53
2019-04-11T11:14:10.152Z,8.13
2019-04-11T11:16:45.477Z,8.27
2019-04-11T11:19:58.923Z,9.07
2019-04-11T11:22:39.885Z,9.77
2019-04-11T11:25:31.309Z,9.50
2019-04-11T11:28:00.247Z,9.03
2019-04-11T11:30:47.401Z,8.53
2019-04-11T11:33:16.248Z,8.77
2019-04-11T11:36:04.588Z,9.17
2019-04-11T11:38:35.736Z,9.90
2019-04-11T11:41:28.890Z,9.43
2019-04-11T11:43:57.104Z,9.10
2019-04-11T11:46:44.632Z,8.53
2019-04-11T11:49:41.771Z,8.93
2019-04-11T11:52:13.102Z,8.78
2019-04-11T11:54:48.063Z,8.65
2019-04-11T11:57:23.642Z,8.63
2019-04-11T12:00:07.205Z,9.40
2019-04-11T12:02:39.057Z,9.13
2019-04-11T12:05:26.979Z,8.65
2019-04-11T12:08:04.408Z,8.60
2019-04-11T12:10:51.306Z,9.33
2019-04-11T12:13:45.512Z,9.93
2019-04-11T12:16:21.312Z,9.78
2019-04-11T12:19:15.861Z,9.38
2019-04-11T12:21:43.252Z,10.15
2019-04-11T12:24:20.727Z,9.98
2019-04-11T12:27:11.519Z,9.55
2019-04-11T12:29:48.918Z,9.63
2019-04-11T12:32:20.191Z,10.30
2019-04-11T12:34:57.734Z,10.25
2019-04-11T12:37:31.610Z,10.08
2019-04-11T12:40:17.512Z,10.43
2019-04-11T12:42:45.165Z,11.57
2019-04-11T12:45:31.264Z,11.10
2019-04-11T12:48:00.435Z,10.18
2019-04-11T12:50:46.646Z,10.08
2019-04-11T12:53:16.321Z,9.90
2019-04-11T12:56:13.037Z,10.48
2019-04-11T12:59:03.143Z,10.82
2019-04-11T13:01:53.329Z,11.15
2019-04-11T13:04:29.052Z,11.30
2019-04-11T13:07:04.212Z,11.30
2019-04-11T13:09:54.147Z,11.83
2019-04-11T13:12:41.339Z,10.98
2019-04-11T13:15:34.352Z,10.93
2019-04-11T13:18:23.192Z,11.63
2019-04-11T13:21:10.345Z,10.53
2019-04-11T13:23:53.925Z,10.83
2019-04-11T13:26:41.057Z,10.47
2019-04-11T13:29:18.525Z,11.08
2019-04-11T13:32:11.726Z,10.72
2019-04-11T13:34:40.070Z,11.25
2019-04-11T13:37:33.099Z,10.30
2019-04-11T13:40:23.290Z,10.20
2019-04-11T13:43:25.887Z,10.13
2019-04-11T13:46:01.797Z,10.45
2019-04-11T13:48:47.401Z,10.72
2019-04-11T13:51:24.700Z,10.85
2019-04-11T13:54:20.983Z,10.58
2019-04-11T13:57:03.675Z,10.32
2019-04-11T13:59:49.317Z,11.55
2019-04-11T14:02:24.089Z,10.05
2019-04-11T14:04:53.265Z,10.50
2019-04-11T14:07:23.423Z,10.88
2019-04-11T14:09:52.082Z,10.53
2019-04-11T14:12:19.712Z,10.35
2019-04-11T14:14:51.940Z,11.10
2019-04-11T14:17:41.626Z,12.47
2019-04-11T14:20:29.718Z,12.17
2019-04-11T14:23:15.181Z,10.87
2019-04-11T14:26:01.487Z,11.03
2019-04-11T14:29:06.754Z,11.00
2019-04-11T14:32:06.286Z,12.13
2019-04-11T14:35:01.040Z,11.22
2019-04-11T14:37:54.177Z,11.15
2019-04-11T14:40:42.068Z,10.70
2019-04-11T14:43:27.733Z,9.88
2019-04-11T14:46:23.724Z,11.48
2019-04-11T14:49:05.767Z,10.72
2019-04-11T14:51:59.072Z,11.25
2019-04-11T14:54:34.488Z,10.32
2019-04-11T14:57:22.810Z,10.87
2019-04-11T14:59:54.678Z,11.27
2019-04-11T15:02:56.818Z,10.83
2019-04-11T15:05:49.988Z,10.67
2019-04-11T15:08:26.847Z,10.60
2019-04-11T15:11:18.465Z,9.80
2019-04-11T15:13:48.119Z,11.40
2019-04-11T15:16:43.982Z,11.47
2019-04-11T15:19:11.601Z,10.73
2019-04-11T15:21:57.631Z,10.53
2019-04-11T15:24:25.303Z,11.13
2019-04-11T15:27:12.484Z,10.47
2019-04-11T15:29:45.545Z,10.73
2019-04-11T15:32:33.416Z,10.60
2019-04-11T15:35:04.034Z,9.97
2019-04-11T15:37:51.122Z,11.20
2019-04-11T15:40:38.208Z,10.53
2019-04-11T15:43:31.549Z,10.00
2019-04-11T15:46:27.979Z,11.10
2019-04-11T15:49:21.285Z,10.80
2019-04-11T15:51:50.699Z,10.77
2019-04-11T15:54:40.810Z,10.97
2019-04-11T15:57:42.884Z,10.97
2019-04-11T16:00:30.476Z,10.60
2019-04-11T16:03:09.312Z,10.73
2019-04-11T16:06:15.357Z,10.87
2019-04-11T16:08:54.379Z,11.67
2019-04-11T16:11:53.589Z,11.23
2019-04-11T16:14:47.390Z,10.17
2019-04-11T16:17:34.744Z,10.30
2019-04-11T16:20:17.879Z,10.50
2019-04-11T16:23:10.332Z,10.70
2019-04-11T16:25:38.303Z,11.03
2019-04-11T16:28:23.923Z,11.53
2019-04-11T16:30:53.662Z,11.37
2019-04-11T16:33:39.829Z,10.77
2019-04-11T16:36:11.351Z,10.30
2019-04-11T16:39:26.806Z,10.70
2019-04-11T16:42:02.783Z,10.90
2019-04-11T16:44:49.847Z,11.10
2019-04-11T16:47:35.589Z,10.80
2019-04-11T16:50:03.365Z,9.97
2019-04-11T16:52:30.929Z,11.00
2019-04-11T16:54:58.514Z,10.87
2019-04-11T16:57:26.097Z,10.40
2019-04-11T16:59:53.716Z,11.10
2019-04-11T17:02:21.863Z,11.10
2019-04-11T17:04:50.669Z,10.13
2019-04-11T17:07:42.901Z,10.50
2019-04-11T17:10:10.890Z,10.90
2019-04-11T17:12:38.519Z,10.20
2019-04-11T17:15:06.496Z,10.60
2019-04-11T17:17:34.116Z,10.57
2019-04-11T17:20:05.697Z,10.80
2019-04-11T17:22:31.194Z,10.80
2019-04-11T17:24:58.805Z,10.80
2019-04-11T17:27:26.441Z,10.93
2019-04-11T17:29:55.390Z,9.83
2019-04-11T17:32:23.633Z,10.57
2019-04-11T17:34:52.835Z,10.17
2019-04-11T17:37:20.477Z,10.07
2019-04-11T17:39:48.102Z,10.67
2019-04-11T17:42:15.819Z,10.60
2019-04-11T17:44:43.426Z,10.13
2019-04-11T17:47:11.081Z,10.43
2019-04-11T17:49:38.808Z,10.60
2019-04-11T17:52:06.585Z,11.00
2019-04-11T17:54:34.234Z,10.73
2019-04-11T17:57:01.828Z,9.77
2019-04-11T17:59:29.462Z,10.30
2019-04-11T18:01:57.047Z,10.17
2019-04-11T18:04:24.682Z,10.10
2019-04-11T18:06:52.253Z,9.73
2019-04-11T18:09:20.455Z,9.33
2019-04-11T18:11:49.301Z,9.70
2019-04-11T18:14:16.911Z,8.83
2019-04-11T18:16:44.496Z,9.17
2019-04-11T18:19:12.138Z,9.00
2019-04-11T18:21:39.688Z,8.97
2019-04-11T18:24:07.389Z,9.17
2019-04-11T18:26:34.951Z,9.33
2019-04-11T18:29:02.604Z,8.67
2019-04-11T18:31:31.761Z,8.83
2019-04-11T18:34:01.673Z,9.17
2019-04-11T18:36:31.774Z,8.70
2019-04-11T18:39:02.040Z,9.03
2019-04-11T18:41:27.587Z,8.83
2019-04-11T18:43:55.177Z,9.53
2019-04-11T18:46:22.775Z,8.63
2019-04-11T18:48:50.429Z,8.73
2019-04-11T18:51:18.018Z,8.53
2019-04-11T18:53:45.661Z,9.13
2019-04-11T18:56:13.251Z,8.53
2019-04-11T18:58:40.798Z,8.07
2019-04-11T19:01:09.071Z,9.00
2019-04-11T19:03:41.104Z,8.63
2019-04-11T19:06:06.915Z,8.80
2019-04-11T19:08:34.589Z,7.93
2019-04-11T19:11:02.306Z,9.60
2019-04-11T19:13:29.891Z,8.10
2019-04-11T19:15:57.503Z,8.60
2019-04-11T19:18:25.077Z,7.67
2019-04-11T19:20:52.713Z,8.93
2019-04-11T19:23:20.347Z,8.70
2019-04-11T19:25:47.936Z,8.63
2019-04-11T19:28:15.550Z,8.53
2019-04-11T19:30:43.491Z,8.83
2019-04-11T19:33:11.060Z,8.30
2019-04-11T19:35:41.403Z,7.90
2019-04-11T19:38:12.082Z,8.43
2019-04-11T19:40:39.396Z,7.60
2019-04-11T19:43:06.956Z,8.10
2019-04-11T19:45:34.544Z,7.97
2019-04-11T19:48:02.156Z,7.77
2019-04-11T19:50:29.866Z,8.30
2019-04-11T19:52:57.489Z,8.03
2019-04-11T19:55:52.316Z,8.43
2019-04-11T19:58:21.711Z,7.80
2019-04-11T20:00:53.071Z,8.10
2019-04-11T20:03:18.705Z,7.50
2019-04-11T20:05:46.327Z,7.80
2019-04-11T20:08:13.943Z,7.93
2019-04-11T20:10:41.538Z,7.67
2019-04-11T20:13:09.135Z,8.10
2019-04-11T20:15:39.947Z,7.10
2019-04-11T20:18:06.466Z,7.63
2019-04-11T20:20:37.035Z,8.03
2019-04-11T20:23:05.251Z,7.37
2019-04-11T20:25:32.862Z,7.60
2019-04-11T20:28:00.453Z,7.87
2019-04-11T20:30:28.044Z,7.60
2019-04-11T20:32:55.619Z,7.43
2019-04-11T20:35:28.652Z,7.23
2019-04-11T20:37:54.268Z,8.07
2019-04-11T20:40:22.513Z,7.63
2019-04-11T20:42:54.096Z,7.93
2019-04-11T20:45:19.702Z,7.60
2019-04-11T20:47:47.339Z,8.07
2019-04-11T20:50:14.915Z,8.17
2019-04-11T20:52:42.559Z,8.07
2019-04-11T20:55:10.446Z,7.40
2019-04-11T20:57:40.488Z,7.50
2019-04-11T21:00:12.059Z,7.40
2019-04-11T21:02:37.195Z,7.50
2019-04-11T21:05:05.054Z,8.37
2019-04-11T21:07:32.745Z,7.70
2019-04-11T21:10:03.557Z,7.50
2019-04-11T21:12:29.842Z,7.70
2019-04-11T21:14:57.467Z,7.33
2019-04-11T21:17:25.106Z,8.17
2019-04-11T21:19:53.224Z,7.37
2019-04-11T21:22:24.027Z,7.37
2019-04-11T21:24:50.891Z,7.80
2019-04-11T21:27:18.524Z,7.80
2019-04-11T21:29:46.118Z,7.13
2019-04-11T21:32:14.107Z,8.13
2019-04-11T21:34:41.849Z,7.47
2019-04-11T21:37:09.401Z,7.50
2019-04-11T21:39:36.983Z,7.93
2019-04-11T21:42:06.092Z,7.17
2019-04-11T21:44:36.685Z,7.40
2019-04-11T21:47:03.415Z,7.60
2019-04-11T21:49:31.010Z,7.57
2019-04-11T21:51:58.593Z,7.47
2019-04-11T21:54:26.193Z,7.07
2019-04-11T21:56:53.776Z,7.17
2019-04-11T21:59:21.372Z,7.30
2019-04-11T22:01:48.937Z,7.23
2019-04-11T22:04:16.611Z,7.07
2019-04-11T22:06:44.226Z,7.17
2019-04-11T22:09:11.861Z,7.20
2019-04-11T22:11:39.435Z,7.27
2019-04-11T22:14:10.983Z,7.93
2019-04-11T22:16:36.398Z,7.13
2019-04-11T22:19:03.988Z,7.30
2019-04-11T22:21:31.569Z,7.50
2019-04-11T22:23:59.188Z,7.30
2019-04-11T22:26:26.784Z,7.17
2019-04-11T22:28:55.221Z,6.53
2019-04-11T22:31:25.015Z,7.10
2019-04-11T22:34:21.571Z,7.20
2019-04-11T22:36:49.227Z,7.30
2019-04-11T22:39:16.844Z,7.07
2019-04-11T22:41:44.510Z,7.17
2019-04-11T22:44:12.100Z,7.23
2019-04-11T22:46:39.743Z,7.07
2019-04-11T22:49:08.958Z,7.83
2019-04-11T22:51:36.740Z,7.17
2019-04-11T22:54:04.321Z,7.53
2019-04-11T22:56:31.919Z,6.60
2019-04-11T22:58:59.461Z,7.13
2019-04-11T23:01:27.103Z,7.37
2019-04-11T23:03:57.728Z,7.57
2019-04-11T23:06:25.338Z,6.67
2019-04-11T23:08:52.949Z,7.73
2019-04-11T23:11:20.514Z,7.43
2019-04-11T23:13:48.063Z,7.57
2019-04-11T23:16:15.659Z,6.90
2019-04-11T23:18:44.252Z,7.23
2019-04-11T23:21:14.332Z,7.07
2019-04-11T23:23:42.114Z,7.50
2019-04-11T23:26:09.916Z,7.53
2019-04-11T23:28:37.696Z,7.60
2019-04-11T23:31:05.486Z,7.37
2019-04-11T23:33:32.990Z,7.53
2019-04-11T23:36:00.569Z,7.67
2019-04-11T23:38:28.141Z,7.70
2019-04-11T23:40:55.757Z,7.90
2019-04-11T23:43:23.325Z,7.73
2019-04-11T23:45:51.811Z,7.43
2019-04-11T23:48:19.489Z,7.47
2019-04-11T23:50:47.065Z,7.77
2019-04-11T23:53:14.669Z,7.40
2019-04-11T23:55:42.215Z,7.73
2019-04-11T23:58:09.813Z,7.30
